createdAt,value
2023-02-05T00:01:49.290Z,-9.09
2023-02-05T00:04:17.514Z,-9.21
2023-02-05T00:06:46.787Z,-9.43
2023-02-05T00:09:14.675Z,-9.63
2023-02-05T00:11:42.748Z,-9.83
2023-02-05T00:14:10.921Z,-10.02
2023-02-05T00:16:38.988Z,-10.17
2023-02-05T00:19:06.846Z,-10.37
2023-02-05T00:21:35.243Z,-10.57
2023-02-05T00:24:04.896Z,-10.56
2023-02-05T00:26:33.524Z,-10.63
2023-02-05T00:29:02.060Z,-10.75
2023-02-05T00:31:30.180Z,-10.86
2023-02-05T00:33:58.815Z,-10.97
2023-02-05T00:36:27.475Z,-10.80
2023-02-05T00:38:55.454Z,-10.68
2023-02-05T00:41:24.614Z,-10.63
2023-02-05T00:43:52.560Z,-10.67
2023-02-05T00:46:20.653Z,-10.69
2023-02-05T00:48:48.674Z,-10.73
2023-02-05T00:51:16.629Z,-10.65
2023-02-05T00:53:44.665Z,-10.69
2023-02-05T00:56:12.681Z,-10.72
2023-02-05T00:58:47.455Z,-10.51
2023-02-05T01:01:15.917Z,-10.43
2023-02-05T01:03:44.485Z,-10.33
2023-02-05T01:06:12.534Z,-10.28
2023-02-05T01:08:40.967Z,-10.21
2023-02-05T01:11:11.325Z,-9.91
2023-02-05T01:13:41.080Z,-9.76
2023-02-05T01:16:10.455Z,-9.65
2023-02-05T01:18:40.129Z,-9.55
2023-02-05T01:21:08.242Z,-9.44
2023-02-05T01:23:36.152Z,-9.31
2023-02-05T01:26:04.377Z,-9.09
2023-02-05T01:28:32.405Z,-8.84
2023-02-05T01:31:01.687Z,-8.75
2023-02-05T01:33:29.719Z,-8.62
2023-02-05T01:35:57.740Z,-8.48
2023-02-05T01:38:25.737Z,-8.46
2023-02-05T01:40:53.893Z,-8.31
2023-02-05T01:43:21.861Z,-8.26
2023-02-05T01:46:15.994Z,-8.21
2023-02-05T01:48:47.826Z,-8.11
2023-02-05T01:51:17.677Z,-7.98
2023-02-05T01:53:49.408Z,-7.92
2023-02-05T01:56:22.279Z,-7.90
2023-02-05T01:58:54.903Z,-7.81
2023-02-05T02:01:25.876Z,-7.74
2023-02-05T02:03:55.896Z,-7.69
2023-02-05T02:06:23.922Z,-7.63
2023-02-05T02:08:51.872Z,-7.55
2023-02-05T02:11:23.336Z,-7.50
2023-02-05T02:13:55.708Z,-7.52
2023-02-05T02:16:26.360Z,-7.33
2023-02-05T02:18:55.636Z,-7.35
2023-02-05T02:21:53.774Z,-7.18
2023-02-05T02:24:49.847Z,-7.09
2023-02-05T02:27:46.379Z,-7.04
2023-02-05T02:30:21.584Z,-7.09
2023-02-05T02:32:58.947Z,-7.14
2023-02-05T02:35:33.703Z,-6.99
2023-02-05T02:38:09.977Z,-6.90
2023-02-05T02:40:43.136Z,-6.80
2023-02-05T02:43:17.106Z,-6.79
2023-02-05T02:45:51.770Z,-6.67
2023-02-05T02:48:24.896Z,-6.60
2023-02-05T02:50:56.665Z,-6.54
2023-02-05T02:53:28.168Z,-6.60
2023-02-05T02:55:58.285Z,-6.66
2023-02-05T02:58:33.987Z,-6.62
2023-02-05T03:01:05.219Z,-6.53
2023-02-05T03:03:37.686Z,-6.46
2023-02-05T03:06:08.331Z,-6.37
2023-02-05T03:08:43.183Z,-6.28
2023-02-05T03:11:14.698Z,-6.27
2023-02-05T03:13:45.655Z,-6.27
2023-02-05T03:16:15.646Z,-6.06
2023-02-05T03:18:44.148Z,-5.94
2023-02-05T03:21:17.923Z,-5.97
2023-02-05T03:23:46.165Z,-5.87
2023-02-05T03:26:28.067Z,-5.78
2023-02-05T03:28:58.332Z,-5.64
2023-02-05T03:31:33.886Z,-5.59
2023-02-05T03:34:13.512Z,-5.54
2023-02-05T03:36:51.947Z,-5.52
2023-02-05T03:39:31.115Z,-5.49
2023-02-05T03:42:11.683Z,-5.46
2023-02-05T03:45:19.317Z,-5.39
2023-02-05T03:48:01.281Z,-5.33
2023-02-05T03:50:33.457Z,-5.27
2023-02-05T03:53:20.850Z,-5.30
2023-02-05T03:55:52.759Z,-5.27
2023-02-05T03:58:25.823Z,-5.27
2023-02-05T04:00:55.039Z,-5.14
2023-02-05T04:03:23.241Z,-5.13
2023-02-05T04:05:51.324Z,-5.09
2023-02-05T04:08:19.237Z,-5.02
2023-02-05T04:10:47.179Z,-5.05
2023-02-05T04:13:16.123Z,-5.01
2023-02-05T04:15:44.200Z,-4.94
2023-02-05T04:18:13.646Z,-4.96
2023-02-05T04:20:41.503Z,-4.85
2023-02-05T04:23:09.324Z,-4.87
2023-02-05T04:25:37.854Z,-4.82
2023-02-05T04:28:06.816Z,-4.82
2023-02-05T04:30:35.566Z,-4.84
2023-02-05T04:33:03.909Z,-4.81
2023-02-05T04:35:33.516Z,-4.82
2023-02-05T04:38:01.589Z,-4.76
2023-02-05T04:40:29.576Z,-4.75
2023-02-05T04:42:57.635Z,-4.69
2023-02-05T04:45:29.066Z,-4.62
2023-02-05T04:47:57.104Z,-4.61
2023-02-05T04:50:25.284Z,-4.63
2023-02-05T04:52:54.844Z,-4.57
2023-02-05T04:55:22.794Z,-4.51
2023-02-05T04:57:52.570Z,-4.48
2023-02-05T05:00:21.143Z,-4.55
2023-02-05T05:02:49.241Z,-4.57
2023-02-05T05:05:18.632Z,-4.51
2023-02-05T05:07:47.045Z,-4.44
2023-02-05T05:10:16.454Z,-4.42
2023-02-05T05:12:44.460Z,-4.46
2023-02-05T05:15:12.368Z,-4.34
2023-02-05T05:17:40.412Z,-4.27
2023-02-05T05:20:08.902Z,-4.26
2023-02-05T05:22:36.784Z,-4.22
2023-02-05T05:25:04.794Z,-4.25
2023-02-05T05:27:34.390Z,-4.27
2023-02-05T05:30:02.521Z,-4.16
2023-02-05T05:32:30.456Z,-4.09
2023-02-05T05:34:58.414Z,-4.03
2023-02-05T05:37:26.382Z,-4.00
2023-02-05T05:40:11.549Z,-3.92
2023-02-05T05:42:58.067Z,-3.90
2023-02-05T05:45:26.288Z,-3.88
2023-02-05T05:47:54.265Z,-3.89
2023-02-05T05:50:22.226Z,-3.89
2023-02-05T05:52:50.270Z,-3.86
2023-02-05T05:55:18.259Z,-3.87
2023-02-05T05:57:47.630Z,-3.84
2023-02-05T06:00:16.606Z,-3.79
2023-02-05T06:02:44.795Z,-3.78
2023-02-05T06:05:13.007Z,-3.74
2023-02-05T06:07:41.013Z,-3.72
2023-02-05T06:10:09.647Z,-3.64
2023-02-05T06:12:37.619Z,-3.60
2023-02-05T06:15:08.149Z,-3.54
2023-02-05T06:17:36.094Z,-3.50
2023-02-05T06:20:04.186Z,-3.50
2023-02-05T06:22:32.191Z,-3.42
2023-02-05T06:25:00.133Z,-3.41
2023-02-05T06:27:28.136Z,-3.44
2023-02-05T06:29:56.077Z,-3.35
2023-02-05T06:32:26.888Z,-3.32
2023-02-05T06:34:54.800Z,-3.28
2023-02-05T06:37:34.185Z,-3.27
2023-02-05T06:40:13.809Z,-3.24
2023-02-05T06:42:41.735Z,-3.24
2023-02-05T06:45:13.300Z,-3.20
2023-02-05T06:47:42.520Z,-3.22
2023-02-05T06:50:10.947Z,-3.16
2023-02-05T06:52:38.893Z,-3.18
2023-02-05T06:55:07.739Z,-3.15
2023-02-05T06:57:35.717Z,-3.15
2023-02-05T07:00:03.650Z,-3.07
2023-02-05T07:02:31.895Z,-3.05
2023-02-05T07:05:01.263Z,-3.09
2023-02-05T07:07:29.270Z,-3.10
2023-02-05T07:09:57.314Z,-3.04
2023-02-05T07:12:25.290Z,-2.99
2023-02-05T07:14:53.223Z,-2.96
2023-02-05T07:17:21.304Z,-2.94
2023-02-05T07:19:49.102Z,-2.90
2023-02-05T07:22:18.202Z,-2.91
2023-02-05T07:24:46.216Z,-2.88
2023-02-05T07:27:14.141Z,-2.85
2023-02-05T07:29:41.856Z,-2.81
2023-02-05T07:32:10.196Z,-2.85
2023-02-05T07:34:38.203Z,-2.75
2023-02-05T07:37:06.006Z,-2.69
2023-02-05T07:39:35.379Z,-2.67
2023-02-05T07:42:03.330Z,-2.60
2023-02-05T07:44:31.390Z,-2.58
2023-02-05T07:46:59.387Z,-2.51
2023-02-05T07:49:27.482Z,-2.48
2023-02-05T07:51:55.399Z,-2.44
2023-02-05T07:54:24.707Z,-2.47
2023-02-05T07:56:55.398Z,-2.39
2023-02-05T07:59:23.406Z,-2.37
2023-02-05T08:01:51.787Z,-2.39
2023-02-05T08:04:19.879Z,-2.34
2023-02-05T08:06:47.759Z,-2.28
2023-02-05T08:09:16.887Z,-2.28
2023-02-05T08:11:44.774Z,-2.23
2023-02-05T08:14:14.117Z,-2.20
2023-02-05T08:16:42.265Z,-2.17
2023-02-05T08:19:15.339Z,-2.14
2023-02-05T08:21:43.601Z,-2.10
2023-02-05T08:24:11.540Z,-2.04
2023-02-05T08:26:39.818Z,-1.96
2023-02-05T08:29:08.349Z,-1.93
2023-02-05T08:31:38.858Z,-1.90
2023-02-05T08:34:07.614Z,-1.83
2023-02-05T08:36:35.586Z,-1.76
2023-02-05T08:39:06.552Z,-1.71
2023-02-05T08:41:34.341Z,-1.73
2023-02-05T08:44:02.334Z,-1.71
2023-02-05T08:46:40.399Z,-1.68
2023-02-05T08:49:18.056Z,-1.73
2023-02-05T08:51:46.449Z,-1.81
2023-02-05T08:54:15.475Z,-1.90
2023-02-05T08:56:45.404Z,-1.97
2023-02-05T08:59:14.192Z,-1.96
2023-02-05T09:01:43.453Z,-1.98
2023-02-05T09:04:14.963Z,-1.98
2023-02-05T09:06:45.221Z,-1.95
2023-02-05T09:09:13.657Z,-1.97
2023-02-05T09:11:41.991Z,-1.97
2023-02-05T09:14:11.026Z,-2.01
2023-02-05T09:16:39.208Z,-1.96
2023-02-05T09:19:07.629Z,-2.05
2023-02-05T09:21:36.204Z,-2.07
2023-02-05T09:24:06.116Z,-2.03
2023-02-05T09:26:33.987Z,-2.00
2023-02-05T09:29:02.014Z,-1.96
2023-02-05T09:31:30.052Z,-2.00
2023-02-05T09:33:58.201Z,-1.92
2023-02-05T09:36:26.279Z,-2.02
2023-02-05T09:39:11.821Z,-2.02
2023-02-05T09:41:50.489Z,-1.94
2023-02-05T09:44:30.165Z,-2.06
2023-02-05T09:47:06.793Z,-2.03
2023-02-05T09:49:39.721Z,-1.99
2023-02-05T09:52:18.779Z,-1.97
2023-02-05T09:54:51.843Z,-1.93
2023-02-05T09:57:31.202Z,-1.89
2023-02-05T10:00:00.016Z,-1.85
2023-02-05T10:02:36.629Z,-1.86
2023-02-05T10:05:13.339Z,-1.82
2023-02-05T10:07:52.925Z,-1.86
2023-02-05T10:10:26.018Z,-1.99
2023-02-05T10:13:09.823Z,-2.05
2023-02-05T10:16:07.538Z,-2.14
2023-02-05T10:18:46.616Z,-2.09
2023-02-05T10:21:30.138Z,-2.21
2023-02-05T10:24:27.242Z,-2.13
2023-02-05T10:27:01.584Z,-2.20
2023-02-05T10:29:45.801Z,-2.21
2023-02-05T10:32:22.861Z,-2.23
2023-02-05T10:34:59.468Z,-2.15
2023-02-05T10:37:34.980Z,-2.08
2023-02-05T10:40:03.963Z,-2.06
2023-02-05T10:42:38.858Z,-2.02
2023-02-05T10:45:19.110Z,-2.05
2023-02-05T10:47:57.674Z,-1.96
2023-02-05T10:50:31.529Z,-1.87
2023-02-05T10:52:59.283Z,-1.85
2023-02-05T10:55:27.214Z,-1.71
2023-02-05T10:57:55.501Z,-1.70
2023-02-05T11:00:26.034Z,-1.56
2023-02-05T11:02:57.046Z,-1.44
2023-02-05T11:05:31.592Z,-1.37
2023-02-05T11:07:59.600Z,-1.27
2023-02-05T11:10:29.543Z,-1.27
2023-02-05T11:13:03.344Z,-1.12
2023-02-05T11:15:34.746Z,-0.95
2023-02-05T11:18:05.590Z,-0.80
2023-02-05T11:20:36.290Z,-0.73
2023-02-05T11:23:10.712Z,-0.73
2023-02-05T11:25:50.670Z,-0.78
2023-02-05T11:28:25.104Z,-0.90
2023-02-05T11:30:54.998Z,-0.87
2023-02-05T11:33:29.071Z,-0.89
2023-02-05T11:35:59.112Z,-0.87
2023-02-05T11:38:32.664Z,-0.88
2023-02-05T11:41:03.619Z,-0.97
2023-02-05T11:43:34.383Z,-1.02
2023-02-05T11:46:07.011Z,-1.03
2023-02-05T11:48:40.219Z,-0.94
2023-02-05T11:51:10.895Z,-0.99
2023-02-05T11:53:45.212Z,-0.94
2023-02-05T11:56:22.317Z,-0.91
2023-02-05T11:59:00.097Z,-0.85
2023-02-05T12:01:33.715Z,-0.93
2023-02-05T12:04:03.417Z,-0.96
2023-02-05T12:06:36.801Z,-1.05
2023-02-05T12:09:04.968Z,-1.06
2023-02-05T12:12:04.084Z,-1.06
2023-02-05T12:14:45.611Z,-0.98
2023-02-05T12:17:29.986Z,-0.95
2023-02-05T12:20:04.469Z,-0.91
2023-02-05T12:22:53.434Z,-0.83
2023-02-05T12:25:26.641Z,-0.82
2023-02-05T12:28:10.088Z,-0.82
2023-02-05T12:30:51.739Z,-0.78
2023-02-05T12:33:47.760Z,-0.78
2023-02-05T12:36:27.142Z,-0.68
2023-02-05T12:39:04.116Z,-0.63
2023-02-05T12:41:42.818Z,-0.56
2023-02-05T12:44:25.620Z,-0.58
2023-02-05T12:47:04.295Z,-0.56
2023-02-05T12:49:49.729Z,-0.51
2023-02-05T12:52:29.413Z,-0.44
2023-02-05T12:55:07.859Z,-0.41
2023-02-05T12:57:41.943Z,-0.34
2023-02-05T13:00:16.715Z,-0.39
2023-02-05T13:02:54.295Z,-0.47
2023-02-05T13:05:30.166Z,-0.52
2023-02-05T13:08:03.548Z,-0.53
2023-02-05T13:10:39.680Z,-0.58
2023-02-05T13:13:15.211Z,-0.73
2023-02-05T13:15:45.681Z,-0.83
2023-02-05T13:18:18.936Z,-0.89
2023-02-05T13:21:11.868Z,-0.88
2023-02-05T13:24:08.038Z,-0.95
2023-02-05T13:26:58.254Z,-0.96
2023-02-05T13:29:30.929Z,-0.89
2023-02-05T13:32:14.668Z,-0.85
2023-02-05T13:34:43.529Z,-0.85
2023-02-05T13:37:27.596Z,-0.83
2023-02-05T13:40:15.891Z,-0.84
2023-02-05T13:43:06.642Z,-0.94
2023-02-05T13:46:08.982Z,-0.94
2023-02-05T13:49:08.278Z,-0.96
2023-02-05T13:51:55.651Z,-0.88
2023-02-05T13:54:52.579Z,-0.85
2023-02-05T13:57:58.559Z,-0.88
2023-02-05T14:00:28.017Z,-0.86
2023-02-05T14:02:57.552Z,-0.79
2023-02-05T14:05:34.627Z,-0.91
2023-02-05T14:08:04.342Z,-0.81
2023-02-05T14:10:36.391Z,-0.72
2023-02-05T14:13:13.855Z,-0.82
2023-02-05T14:15:43.069Z,-0.79
2023-02-05T14:18:12.991Z,-0.75
2023-02-05T14:20:44.674Z,-0.82
2023-02-05T14:23:37.404Z,-0.77
2023-02-05T14:26:11.965Z,-0.80
2023-02-05T14:29:00.992Z,-0.84
2023-02-05T14:31:48.528Z,-0.79
2023-02-05T14:34:50.033Z,-0.81
2023-02-05T14:37:39.220Z,-0.86
2023-02-05T14:40:23.128Z,-0.89
2023-02-05T14:43:08.508Z,-0.92
2023-02-05T14:45:44.897Z,-0.97
2023-02-05T14:48:22.578Z,-1.02
2023-02-05T14:51:03.346Z,-1.11
2023-02-05T14:53:33.341Z,-1.12
2023-02-05T14:56:02.304Z,-1.12
2023-02-05T14:58:35.797Z,-1.07
2023-02-05T15:01:32.381Z,-1.08
2023-02-05T15:04:01.854Z,-1.16
2023-02-05T15:06:32.613Z,-1.15
2023-02-05T15:09:06.709Z,-1.23
2023-02-05T15:11:46.394Z,-1.14
2023-02-05T15:14:41.432Z,-1.07
2023-02-05T15:17:49.483Z,-1.15
2023-02-05T15:20:38.286Z,-1.24
2023-02-05T15:23:19.437Z,-1.29
2023-02-05T15:25:54.641Z,-1.38
2023-02-05T15:28:28.429Z,-1.46
2023-02-05T15:31:08.394Z,-1.39
2023-02-05T15:33:45.361Z,-1.31
2023-02-05T15:36:21.679Z,-1.32
2023-02-05T15:39:02.644Z,-1.32
2023-02-05T15:41:33.548Z,-1.34
2023-02-05T15:44:04.241Z,-1.38
2023-02-05T15:46:35.370Z,-1.35
2023-02-05T15:49:06.931Z,-1.37
2023-02-05T15:51:37.892Z,-1.32
2023-02-05T15:54:07.198Z,-1.37
2023-02-05T15:56:38.584Z,-1.42
2023-02-05T15:59:18.527Z,-1.48
2023-02-05T16:01:50.951Z,-1.41
2023-02-05T16:04:20.172Z,-1.42
2023-02-05T16:06:48.342Z,-1.47
2023-02-05T16:09:19.002Z,-1.60
2023-02-05T16:11:48.151Z,-1.67
2023-02-05T16:14:18.161Z,-1.57
2023-02-05T16:16:59.125Z,-1.53
2023-02-05T16:19:30.144Z,-1.65
2023-02-05T16:22:02.250Z,-1.67
2023-02-05T16:24:35.992Z,-1.66
2023-02-05T16:27:07.954Z,-1.84
2023-02-05T16:29:48.133Z,-1.82
2023-02-05T16:32:24.023Z,-1.92
2023-02-05T16:34:52.170Z,-2.10
2023-02-05T16:37:21.711Z,-2.22
2023-02-05T16:39:54.550Z,-2.41
2023-02-05T16:42:34.208Z,-2.53
2023-02-05T16:45:23.762Z,-2.71
2023-02-05T16:48:21.622Z,-2.69
2023-02-05T16:50:50.246Z,-2.55
2023-02-05T16:53:23.604Z,-2.60
2023-02-05T16:55:58.217Z,-2.76
2023-02-05T16:58:28.686Z,-2.94
2023-02-05T17:00:59.316Z,-2.96
2023-02-05T17:03:31.934Z,-2.93
2023-02-05T17:06:02.775Z,-2.89
2023-02-05T17:08:33.499Z,-2.79
2023-02-05T17:11:03.819Z,-2.76
2023-02-05T17:13:38.731Z,-2.60
2023-02-05T17:16:27.790Z,-2.76
2023-02-05T17:18:59.216Z,-2.74
2023-02-05T17:21:29.970Z,-2.87
2023-02-05T17:23:59.733Z,-2.94
2023-02-05T17:26:30.948Z,-2.98
2023-02-05T17:29:01.021Z,-2.98
2023-02-05T17:31:29.534Z,-3.10
2023-02-05T17:34:00.021Z,-3.17
2023-02-05T17:36:28.373Z,-3.27
2023-02-05T17:38:56.418Z,-3.36
2023-02-05T17:41:43.983Z,-3.43
2023-02-05T17:44:12.997Z,-3.50
2023-02-05T17:46:44.873Z,-3.53
2023-02-05T17:49:14.166Z,-3.44
2023-02-05T17:51:42.877Z,-3.53
2023-02-05T17:54:14.663Z,-3.53
2023-02-05T17:56:44.436Z,-3.49
2023-02-05T17:59:17.026Z,-3.44
2023-02-05T18:01:44.868Z,-3.53
2023-02-05T18:04:14.095Z,-3.47
2023-02-05T18:06:43.026Z,-3.36
2023-02-05T18:09:12.422Z,-3.40
2023-02-05T18:11:40.879Z,-3.36
2023-02-05T18:14:09.141Z,-3.40
2023-02-05T18:16:37.447Z,-3.32
2023-02-05T18:19:05.760Z,-3.41
2023-02-05T18:21:35.910Z,-3.39
2023-02-05T18:24:04.394Z,-3.41
2023-02-05T18:26:33.282Z,-3.35
2023-02-05T18:29:01.252Z,-3.36
2023-02-05T18:31:29.230Z,-3.27
2023-02-05T18:33:57.341Z,-3.24
2023-02-05T18:36:25.209Z,-3.34
2023-02-05T18:38:56.675Z,-3.29
2023-02-05T18:41:25.976Z,-3.29
2023-02-05T18:43:55.522Z,-3.29
2023-02-05T18:46:23.749Z,-3.34
2023-02-05T18:48:52.113Z,-3.35
2023-02-05T18:51:22.264Z,-3.45
2023-02-05T18:53:50.810Z,-3.44
2023-02-05T18:56:22.432Z,-3.21
2023-02-05T18:58:53.764Z,-3.20
2023-02-05T19:01:21.764Z,-3.24
2023-02-05T19:03:52.876Z,-3.21
2023-02-05T19:06:21.711Z,-3.15
2023-02-05T19:08:50.491Z,-3.05
2023-02-05T19:11:22.917Z,-3.08
2023-02-05T19:13:56.178Z,-3.16
2023-02-05T19:16:24.739Z,-3.18
2023-02-05T19:18:52.572Z,-3.29
2023-02-05T19:21:22.426Z,-3.32
2023-02-05T19:23:52.441Z,-3.23
2023-02-05T19:26:24.001Z,-3.20
2023-02-05T19:28:55.966Z,-3.21
2023-02-05T19:31:25.947Z,-3.14
2023-02-05T19:33:54.291Z,-3.10
2023-02-05T19:36:22.636Z,-3.19
2023-02-05T19:38:50.882Z,-3.12
2023-02-05T19:41:22.232Z,-3.14
2023-02-05T19:43:52.265Z,-3.16
2023-02-05T19:46:23.226Z,-3.20
2023-02-05T19:48:51.778Z,-3.27
2023-02-05T19:51:19.864Z,-3.38
2023-02-05T19:53:48.126Z,-3.50
2023-02-05T19:56:17.934Z,-3.47
2023-02-05T19:58:49.343Z,-3.52
2023-02-05T20:01:19.178Z,-3.60
2023-02-05T20:03:47.561Z,-3.69
2023-02-05T20:06:17.526Z,-3.74
2023-02-05T20:08:46.239Z,-3.82
2023-02-05T20:11:14.643Z,-3.91
2023-02-05T20:13:43.347Z,-3.92
2023-02-05T20:16:16.552Z,-4.03
2023-02-05T20:18:45.714Z,-4.11
2023-02-05T20:21:16.043Z,-4.18
2023-02-05T20:23:44.000Z,-4.21
2023-02-05T20:26:12.523Z,-4.13
2023-02-05T20:28:56.708Z,-4.25
2023-02-05T20:31:41.379Z,-4.30
2023-02-05T20:34:11.708Z,-4.37
2023-02-05T20:36:39.839Z,-4.49
2023-02-05T20:39:08.985Z,-4.42
2023-02-05T20:41:37.007Z,-4.44
2023-02-05T20:44:05.287Z,-4.56
2023-02-05T20:46:34.585Z,-4.57
2023-02-05T20:49:03.514Z,-4.54
2023-02-05T20:51:31.757Z,-4.55
2023-02-05T20:54:00.216Z,-4.45
2023-02-05T20:56:30.030Z,-4.53
2023-02-05T20:59:00.717Z,-4.53
2023-02-05T21:01:31.475Z,-4.52
2023-02-05T21:04:03.094Z,-4.55
2023-02-05T21:06:33.861Z,-4.62
2023-02-05T21:09:02.111Z,-4.65
2023-02-05T21:11:30.944Z,-4.75
2023-02-05T21:13:59.400Z,-4.69
2023-02-05T21:16:28.580Z,-4.79
2023-02-05T21:18:56.600Z,-4.81
2023-02-05T21:21:28.031Z,-4.81
2023-02-05T21:23:57.044Z,-4.73
2023-02-05T21:26:27.022Z,-4.61
2023-02-05T21:28:55.236Z,-4.59
2023-02-05T21:31:23.905Z,-4.58
2023-02-05T21:33:51.779Z,-4.51
2023-02-05T21:36:20.466Z,-4.45
2023-02-05T21:38:49.822Z,-4.41
2023-02-05T21:41:19.514Z,-4.46
2023-02-05T21:43:49.544Z,-4.56
2023-02-05T21:46:17.393Z,-4.63
2023-02-05T21:48:49.606Z,-4.67
2023-02-05T21:51:18.873Z,-4.64
2023-02-05T21:53:55.371Z,-4.55
2023-02-05T21:56:23.298Z,-4.57
2023-02-05T21:58:51.623Z,-4.56
2023-02-05T22:01:22.680Z,-4.54
2023-02-05T22:03:52.998Z,-4.61
2023-02-05T22:06:23.008Z,-4.55
2023-02-05T22:08:51.086Z,-4.52
2023-02-05T22:11:22.123Z,-4.50
2023-02-05T22:13:51.824Z,-4.53
2023-02-05T22:16:21.929Z,-4.59
2023-02-05T22:18:50.931Z,-4.47
2023-02-05T22:21:20.598Z,-4.46
2023-02-05T22:23:51.581Z,-4.50
2023-02-05T22:26:23.293Z,-4.43
2023-02-05T22:28:51.886Z,-4.47
2023-02-05T22:31:21.323Z,-4.52
2023-02-05T22:33:50.994Z,-4.43
2023-02-05T22:36:21.974Z,-4.56
2023-02-05T22:38:51.048Z,-4.63
2023-02-05T22:41:22.608Z,-4.57
2023-02-05T22:43:50.908Z,-4.64
2023-02-05T22:46:21.113Z,-4.79
2023-02-05T22:48:50.154Z,-4.84
2023-02-05T22:51:20.817Z,-4.84
2023-02-05T22:53:49.240Z,-4.82
2023-02-05T22:56:18.610Z,-4.74
2023-02-05T22:58:49.149Z,-4.63
2023-02-05T23:01:19.331Z,-4.65
2023-02-05T23:03:49.367Z,-4.68
2023-02-05T23:06:19.143Z,-4.78
2023-02-05T23:08:51.337Z,-4.83
2023-02-05T23:11:20.502Z,-4.85
2023-02-05T23:13:50.156Z,-4.89
2023-02-05T23:16:20.883Z,-4.89
2023-02-05T23:18:50.218Z,-4.87
2023-02-05T23:21:21.950Z,-4.80
2023-02-05T23:23:50.742Z,-4.75
2023-02-05T23:26:21.452Z,-4.85
2023-02-05T23:28:51.226Z,-4.90
2023-02-05T23:31:19.993Z,-4.87
2023-02-05T23:33:48.001Z,-4.85
2023-02-05T23:36:15.921Z,-4.85
2023-02-05T23:38:44.058Z,-4.88
2023-02-05T23:41:12.217Z,-4.88
2023-02-05T23:43:41.083Z,-4.90
2023-02-05T23:46:10.496Z,-4.99
2023-02-05T23:48:38.346Z,-4.97
2023-02-05T23:51:06.269Z,-5.03
2023-02-05T23:53:34.312Z,-4.99
2023-02-05T23:56:03.395Z,-5.03
2023-02-05T23:58:34.064Z,-5.17
